Flight Track Log - Related Links

Times and Time Zones

All times are in EDT time to prevent confusion due to time zone crossing. See the SKW5162 flight status page for this flight to view local times or setup timezone preferences in your user account.

Time Position Orientation Groundspeed Altitude Reporting Facility
EDT Latitude Longitude Course Direction KTS MPH feet Rate Location/Type
Sun 12:51:04 PM 29.9572 -95.3417 98° East 163 188 700  Level Houston Center
Sun 12:52:15 PM 29.9483 -95.2842 100° East 202 232 2,100 1,771 Climbing Houston Center
Sun 12:52:49 PM 29.9425 -95.2253 97° East 260 299 3,800 2,754 Climbing Houston Center
Sun 12:53:16 PM 29.9386 -95.1892 97° East 238 274 4,900 1,309 Climbing Houston Center
Sun 12:53:44 PM 29.9356 -95.1514 95° East 259 298 5,000 97 Climbing Houston Center
Sun 12:54:00 PM 29.9039 -94.7133 95° East  Level FlightAware Approximate
Sun 12:54:18 PM 29.9317 -95.1061 96° East 257 296 5,000  Level Houston Center
Sun 12:54:51 PM 29.9269 -95.0583 96° East 259 298 6,200 2,323 Climbing Houston Center
Sun 12:55:00 PM 29.8834 -94.5582 100° East  Level FlightAware Approximate
Sun 12:55:20 PM 29.9239 -95.0217 95° East 263 303 7,400  Level Houston Center
Sun 12:56:00 PM 29.8608 -94.4033 98° East  Level FlightAware Approximate
Sun 12:56:22 PM 29.9169 -94.9317 95° East 277 319 10,000  Level Houston Center
Sun 12:57:23 PM 29.9094 -94.8297 95° East 314 361 11,300 1,561 Climbing Houston Center
Sun 12:58:25 PM 29.8981 -94.7139 96° East 351 404 13,200 1,887 Climbing Houston Center
Sun 12:59:27 PM 29.8883 -94.5936 95° East 365 420 15,200 1,839 Climbing Houston Center
Sun 01:00:29 PM 29.8778 -94.4689 96° East 378 435 17,000 1,659 Climbing Houston Center
Sun 01:01:30 PM 29.8619 -94.3128 97° East 402 463 18,600 1,366 Climbing Houston Center
Sun 01:02:32 PM 29.8578 -94.1731 92° East 429 494 19,800 1,742 Climbing Houston Center
Sun 01:03:34 PM 29.8717 -94.0369 83° East 438 504 22,200 2,081 Climbing Houston Center
Sun 01:04:36 PM 29.8931 -93.9047 79° East 426 490 24,100 1,415 Climbing Houston Center
Sun 01:05:37 PM 29.9139 -93.7669 80° East 433 498 25,100 976 Climbing Houston Center
Sun 01:06:39 PM 29.9361 -93.6206 80° East 456 525 26,100 1,065 Climbing Houston Center
Sun 01:07:41 PM 29.9628 -93.4403 80° East 477 549 27,300 1,073 Climbing Houston Center
Sun 01:08:42 PM 29.9872 -93.2861 80° East 492 566 28,300 976 Climbing Houston Center
Sun 01:09:44 PM 30.0108 -93.1297 80° East 499 574 29,300 1,016 Climbing Houston Center
Sun 01:10:46 PM 30.0353 -92.9714 80° East 505 581 30,400 1,065 Climbing Houston Center
Sun 01:11:48 PM 30.0589 -92.8125 80° East 505 581 31,500 1,122 Climbing Houston Center
Sun 01:12:49 PM 30.0878 -92.6208 80° East 508 585 32,700 1,024 Climbing Houston Center
Sun 01:13:51 PM 30.1119 -92.4592 80° East 513 590 33,600 823 Climbing Houston Center
Sun 01:14:53 PM 30.1358 -92.2969 80° East 514 592 34,400 774 Climbing Houston Center
Sun 01:15:55 PM 30.1592 -92.1322 81° East 520 598 35,200 829 Climbing Houston Center
Sun 01:16:56 PM 30.1833 -91.9683 80° East 519 597 36,100 878 Climbing Houston Center
Sun 01:17:58 PM 30.2100 -91.7792 81° East 519 597 37,000 435 Climbing Houston Center
Sun 01:19:00 PM 30.2347 -91.6156 80° East 520 598 37,000  Level Houston Center
Sun 01:20:02 PM 30.2586 -91.4522 80° East 519 597 37,000  Level Houston Center
Sun 01:21:04 PM 30.2808 -91.2878 81° East 517 595 37,000  Level Houston Center
Sun 01:22:06 PM 30.3028 -91.1203 81° East 525 604 37,000  Level Houston Center
Sun 01:23:07 PM 30.3247 -90.9492 82° East 534 615 37,000  Level Houston Center
Sun 01:24:09 PM 30.3489 -90.7775 81° East 541 623 37,000  Level Houston Center
Sun 01:25:11 PM 30.3764 -90.5697 81° East 543 625 37,000  Level Houston Center
Sun 01:26:13 PM 30.3981 -90.3961 82° East 546 628 37,000  Level Houston Center
Sun 01:27:15 PM 30.4208 -90.2239 81° East 544 626 37,000  Level Houston Center
Sun 01:28:16 PM 30.4431 -90.0481 82° East 546 628 37,000  Level Houston Center
Sun 01:29:18 PM 30.4661 -89.8719 81° East 546 628 37,000  Level Houston Center
Sun 01:30:20 PM 30.4897 -89.6900 81° East 551 634 37,000  Level Houston Center
Sun 01:31:22 PM 30.5097 -89.5133 82° East 548 631 37,000  Level Houston Center
Sun 01:32:23 PM 30.5311 -89.3367 82° East 550 633 37,000  Level Houston Center
Sun 01:33:25 PM 30.5511 -89.1586 83° East 555 639 37,000  Level Houston Center
Sun 01:34:27 PM 30.5756 -88.9489 82° East 548 631 37,000  Level Houston Center
Sun 01:35:29 PM 30.5939 -88.7839 83° East 549 632 37,000  Level Houston Center
Sun 01:36:30 PM 30.6147 -88.6092 82° East 550 633 37,000  Level Houston Center
Sun 01:37:32 PM 30.6353 -88.4356 82° East 549 632 37,000  Level Houston Center
Sun 01:38:34 PM 30.6586 -88.2267 83° East 551 634 37,000  Level Houston Center
Sun 01:39:36 PM 30.6792 -88.0528 82° East 551 634 37,000  Level Houston Center
Sun 01:40:38 PM 30.6983 -87.8936 82° East 552 635 37,000  Level Houston Center
Sun 01:41:27 PM 30.7153 -87.7344 83° East 543 625 37,000  Level Jacksonville Center
Sun 01:42:27 PM 30.7342 -87.5592 83° East 543 625 37,000  Level Jacksonville Center
Sun 01:43:27 PM 30.7531 -87.3836 83° East 543 625 37,000  Level Jacksonville Center
Sun 01:44:27 PM 30.7717 -87.2056 83° East 548 631 37,000  Level Jacksonville Center
Sun 01:45:27 PM 30.7925 -87.0253 82° East 553 636 37,000  Level Jacksonville Center
Sun 01:46:27 PM 30.8125 -86.8472 83° East 558 642 37,000  Level Jacksonville Center
Sun 01:47:27 PM 30.8286 -86.6689 84° East 558 642 37,000  Level Jacksonville Center
Sun 01:48:27 PM 30.8233 -86.4897 92° East 553 636 37,000  Level Jacksonville Center
Sun 01:49:27 PM 30.8239 -86.3106 90° East 553 636 37,000  Level Jacksonville Center
Sun 01:50:27 PM 30.8244 -86.1317 90° East 553 636 37,000  Level Jacksonville Center
Sun 01:51:27 PM 30.8228 -85.9478 91° East 553 636 37,000  Level Jacksonville Center
Sun 01:52:27 PM 30.8206 -85.7711 91° East 553 636 37,000 -50 Level Jacksonville Center
Sun 01:53:27 PM 30.8203 -85.5922 90° East 553 636 36,900  Descending Jacksonville Center
Sun 01:54:27 PM 30.8200 -85.4108 90° East 553 636 37,000 50 Climbing Jacksonville Center
Sun 01:55:27 PM 30.8175 -85.2147 91° East 553 636 37,000  Level Jacksonville Center
Sun 01:56:27 PM 30.8164 -85.0358 90° East 553 636 37,000  Level Jacksonville Center
Sun 01:57:27 PM 30.8108 -84.8567 92° East 553 636 37,000  Level Jacksonville Center
Sun 01:58:27 PM 30.7717 -84.6867 105° East 539 620 37,000  Level Jacksonville Center
Sun 01:59:28 PM 30.7153 -84.5283 112° Southeast 539 620 37,000  Level Jacksonville Center
Sun 02:00:27 PM 30.6567 -84.3681 113° Southeast 534 615 37,000  Level Jacksonville Center
Sun 02:01:27 PM 30.5981 -84.2056 113° Southeast 541 623 37,000  Level Jacksonville Center
Sun 02:02:27 PM 30.5553 -84.0769 111° Southeast 541 623 37,000 -500 Level Jacksonville Center
Sun 02:03:27 PM 30.4983 -83.9075 111° Southeast 530 610 36,000 -1,550 Descending Jacksonville Center
Sun 02:04:27 PM 30.4392 -83.7383 112° Southeast 542 624 33,900 -2,200 Descending Jacksonville Center
Sun 02:05:27 PM 30.3794 -83.5717 113° Southeast 553 636 31,600 -2,300 Descending Jacksonville Center
Sun 02:06:27 PM 30.3197 -83.4050 113° Southeast 559 643 29,300 -2,281 Descending Jacksonville Center
Sun 02:07:28 PM 30.2619 -83.2436 112° Southeast 554 638 27,000 -1,150 Descending Jacksonville Center
Sun 02:08:27 PM 30.2100 -83.0922 112° Southeast 529 609 27,000 -150 Level Jacksonville Center
Sun 02:09:28 PM 30.1517 -82.9358 113° Southeast 522 601 26,700 -942 Descending Jacksonville Center
Sun 02:10:28 PM 30.0953 -82.7844 113° Southeast 516 594 25,100 -850 Descending Jacksonville Center
Sun 02:11:28 PM 30.0408 -82.6358 113° Southeast 516 594 25,000 -50 Descending Jacksonville Center
Sun 02:12:28 PM 29.9714 -82.4706 116° Southeast 511 588 25,000  Level Jacksonville Center
Sun 02:13:28 PM 29.8564 -82.3919 149° Southeast 463 533 25,000 -950 Level Jacksonville Center
Sun 02:14:28 PM 29.7308 -82.3353 159° South 470 541 23,100 -1,950 Descending Jacksonville Center
Sun 02:15:28 PM 29.6178 -82.2572 149° Southeast 476 548 21,100 -1,550 Descending Jacksonville Center
Sun 02:16:28 PM 29.5131 -82.1767 146° Southeast 466 536 20,000 -900 Descending Jacksonville Center
Sun 02:17:28 PM 29.4206 -82.0797 138° Southeast 461 531 19,300 -1,250 Descending Jacksonville Center
Sun 02:18:28 PM 29.3219 -82.0233 153° Southeast 456 525 17,500 -2,050 Descending Jacksonville Center
Sun 02:19:28 PM 29.2089 -81.9506 151° Southeast 435 501 15,200 -2,250 Descending Jacksonville Center
Sun 02:20:28 PM 29.1039 -81.8897 153° Southeast 421 484 13,000 -1,600 Descending Jacksonville Center
Sun 02:21:28 PM 29.0053 -81.8361 155° Southeast 406 467 12,000 -800 Descending Jacksonville Center
Sun 02:22:28 PM 28.9422 -81.7608 134° Southeast 354 407 11,400 -1,100 Descending Jacksonville Center
Sun 02:23:28 PM 28.8914 -81.6925 130° Southeast 336 387 9,800 -1,200 Descending Jacksonville Center
Sun 02:24:28 PM 28.8447 -81.6150 124° Southeast 316 364 9,000 -990 Descending Jacksonville Center
Sun 02:25:11 PM 28.8167 -81.5500 116° Southeast 268 308 8,100 -1,398 Descending Orlando TRACON
Sun 02:26:11 PM 28.7667 -81.4833 131° Southeast 266 306 6,600 -1,400 Descending Orlando TRACON
Sun 02:27:11 PM 28.7167 -81.4167 131° Southeast 256 295 5,300 -1,400 Descending Orlando TRACON
Sun 02:28:11 PM 28.6667 -81.4000 164° South 236 272 3,800 -1,150 Descending Orlando TRACON
Sun 02:29:11 PM 28.6000 -81.3667 156° South 228 262 3,000 -800 Descending Orlando TRACON

Login

Don't have an account? Register now (free) for customized features, flight alerts, and more!